Time;durP1;ratioP1;P1;durP2;ratioP2;P2;SDS_P1;SDS_P2;PMS_P1;PMS_P2;Temp;Humidity;BMP_temperature;BMP_pressure;BME280_temperature;BME280_humidity;BME280_pressure;Samples;Min_cycle;Max_cycle;Signal;HPM_P1;HPM_P2
2023/01/23 00:01:32;;;;;;;12.52;7.60;;;;;;;14.05;50.09;103721.56;5130202;27;20323;-35
2023/01/23 00:03:59;;;;;;;14.85;8.30;;;;;;;14.06;49.69;103731.28;5130140;27;20150;-35
2023/01/23 00:06:26;;;;;;;14.00;7.55;;;;;;;14.06;50.43;103731.28;5127351;27;20053;-35
2023/01/23 00:08:55;;;;;;;11.93;7.28;;;;;;;14.06;49.47;103725.94;5125072;27;20047;-35
2023/01/23 00:11:25;;;;;;;16.45;8.43;;;;;;;14.06;49.95;103717.97;5128249;27;20127;-35
2023/01/23 00:13:52;;;;;;;13.48;7.88;;;;;;;14.06;49.77;103716.16;5126584;27;20085;-34
2023/01/23 00:16:21;;;;;;;13.68;7.85;;;;;;;14.05;50.35;103716.22;5128665;27;20044;-35
2023/01/23 00:18:49;;;;;;;11.43;7.15;;;;;;;14.06;50.07;103712.63;5124907;27;20048;-35
2023/01/23 00:21:22;;;;;;;13.10;7.40;;;;;;;14.04;49.79;103703.81;5127734;27;20142;-36
2023/01/23 00:23:53;;;;;;;13.38;7.97;;;;;;;14.05;49.96;103702.88;5124532;27;20047;-37
2023/01/23 00:26:24;;;;;;;12.60;7.43;;;;;;;14.05;50.27;103708.22;5124654;27;20327;-35
2023/01/23 00:28:51;;;;;;;13.77;8.13;;;;;;;14.03;49.98;103705.63;5129517;27;20402;-36
2023/01/23 00:31:25;;;;;;;13.02;7.45;;;;;;;14.04;49.88;103711.81;5128144;27;20423;-35
2023/01/23 00:34:12;;;;;;;14.02;8.20;;;;;;;14.01;50.20;103715.47;5129559;27;20125;-36
2023/01/23 00:36:41;;;;;;;13.10;7.50;;;;;;;14.04;50.54;103711.81;5127941;27;20036;-35
2023/01/23 00:39:15;;;;;;;9.98;6.50;;;;;;;14.03;50.13;103710.97;5126826;27;20046;-36
2023/01/23 00:41:41;;;;;;;13.15;7.88;;;;;;;14.04;49.95;103709.16;5129729;27;20054;-35
2023/01/23 00:44:08;;;;;;;11.75;7.32;;;;;;;14.03;50.01;103702.97;5127590;27;20061;-35
2023/01/23 00:46:34;;;;;;;10.70;6.55;;;;;;;14.03;50.03;103700.28;5128450;27;20043;-35
2023/01/23 00:49:01;;;;;;;11.98;7.15;;;;;;;14.05;50.30;103705.56;5127085;27;20058;-35
2023/01/23 00:51:28;;;;;;;12.68;7.40;;;;;;;14.05;50.20;103702.88;5128948;27;20043;-35
2023/01/23 00:53:55;;;;;;;12.18;7.43;;;;;;;14.06;49.82;103696.63;5128681;27;20057;-35
2023/01/23 00:56:21;;;;;;;11.75;7.30;;;;;;;14.06;49.66;103692.16;5124429;27;20054;-36
2023/01/23 00:58:48;;;;;;;12.02;6.97;;;;;;;14.06;49.93;103693.94;5123321;27;20046;-35
2023/01/23 01:01:15;;;;;;;13.55;7.55;;;;;;;14.08;49.83;103689.44;5123661;27;20052;-35
2023/01/23 01:03:42;;;;;;;11.75;7.18;;;;;;;14.06;50.42;103683.28;5126125;27;20126;-36
2023/01/23 01:06:10;;;;;;;11.52;6.72;;;;;;;14.06;49.98;103678.81;5121385;27;20347;-37
2023/01/23 01:08:36;;;;;;;11.52;6.95;;;;;;;14.07;50.16;103677.06;5120437;27;20047;-35
2023/01/23 01:11:03;;;;;;;12.93;7.22;;;;;;;14.07;50.10;103690.38;5124075;27;20043;-35
2023/01/23 01:13:30;;;;;;;12.95;7.40;;;;;;;14.07;49.98;103695.72;5126281;27;20442;-36
2023/01/23 01:15:56;;;;;;;12.43;6.82;;;;;;;14.07;50.20;103693.06;5125068;27;20051;-35
2023/01/23 01:18:23;;;;;;;11.32;6.70;;;;;;;14.06;49.79;103699.28;5123986;27;20048;-35
2023/01/23 01:20:50;;;;;;;13.20;7.15;;;;;;;14.07;50.36;103698.38;5123339;27;20054;-35
2023/01/23 01:23:18;;;;;;;11.52;6.80;;;;;;;14.07;50.37;103703.72;5119986;27;20058;-35
2023/01/23 01:25:45;;;;;;;10.27;6.07;;;;;;;14.07;50.11;103706.38;5126289;27;20050;-35
2023/01/23 01:28:12;;;;;;;11.05;6.95;;;;;;;14.06;49.78;103699.28;5120656;27;20055;-35
2023/01/23 01:30:39;;;;;;;10.15;6.28;;;;;;;14.06;50.18;103699.28;5123568;27;20043;-35
2023/01/23 01:33:06;;;;;;;11.88;6.57;;;;;;;14.05;50.73;103702.88;5127586;27;20201;-36
2023/01/23 01:35:33;;;;;;;11.35;6.40;;;;;;;14.05;49.75;103709.09;5127016;27;20055;-36
2023/01/23 01:37:59;;;;;;;11.40;6.95;;;;;;;14.04;50.07;103701.16;5130056;27;20066;-35
2023/01/23 01:40:31;;;;;;;10.75;6.53;;;;;;;14.05;50.76;103702.88;5126404;27;20051;-37
2023/01/23 01:43:07;;;;;;;8.82;5.88;;;;;;;14.03;50.07;103700.28;5130807;27;20069;-35
2023/01/23 01:46:07;;;;;;;10.50;6.50;;;;;;;14.04;49.99;103702.03;5129271;27;20035;-35
2023/01/23 01:48:46;;;;;;;11.15;6.15;;;;;;;14.03;50.09;103702.97;5123188;27;20043;-35
2023/01/23 01:51:28;;;;;;;12.23;6.75;;;;;;;14.03;50.17;103708.28;5128950;27;20062;-35
2023/01/23 01:54:09;;;;;;;10.82;6.25;;;;;;;14.05;50.01;103705.56;5124839;27;20042;-36
2023/01/23 01:57:07;;;;;;;10.10;5.97;;;;;;;14.04;50.25;103703.81;5127756;27;20046;-38
2023/01/23 01:59:39;;;;;;;11.65;6.32;;;;;;;14.05;50.50;103697.56;5129870;27;20053;-36
2023/01/23 02:02:17;;;;;;;10.32;6.28;;;;;;;14.05;50.13;103708.22;5127740;27;20334;-35
2023/01/23 02:04:47;;;;;;;10.32;6.15;;;;;;;14.05;50.28;103706.41;5123351;27;20145;-35
2023/01/23 02:07:21;;;;;;;10.10;6.22;;;;;;;14.07;50.08;103717.06;5124427;27;20502;-35
2023/01/23 02:09:49;;;;;;;9.07;5.60;;;;;;;14.06;50.23;103705.50;5118940;27;20342;-35
2023/01/23 02:12:15;;;;;;;10.15;6.13;;;;;;;14.08;50.41;103711.66;5122198;27;20051;-35
2023/01/23 02:14:42;;;;;;;10.52;6.07;;;;;;;14.09;50.36;103715.19;5120344;27;20350;-35
2023/01/23 02:17:09;;;;;;;9.57;5.55;;;;;;;14.09;50.48;103707.19;5125387;27;20331;-35
2023/01/23 02:20:02;;;;;;;9.98;6.28;;;;;;;14.06;50.68;103713.47;5124950;27;20457;-35
2023/01/23 02:22:46;;;;;;;8.98;5.78;;;;;;;14.08;50.28;103726.78;5116846;27;20043;-35
2023/01/23 02:25:13;;;;;;;;;;;;;;;14.07;50.54;103719.72;5120291;27;20047;-35
2023/01/23 02:27:39;;;;;;;10.15;5.80;;;;;;;14.10;50.22;103722.25;5126571;27;19920;-35
2023/01/23 02:30:07;;;;;;;11.40;6.30;;;;;;;14.08;50.06;103722.31;5126241;27;20058;-35
2023/01/23 02:32:36;;;;;;;9.75;5.32;;;;;;;14.08;50.66;103726.78;5127369;27;20050;-38
2023/01/23 02:35:12;;;;;;;9.43;5.80;;;;;;;14.06;50.46;103724.16;5127308;27;20090;-37
2023/01/23 02:37:44;;;;;;;9.90;6.18;;;;;;;14.07;50.17;103719.72;5125155;27;20323;-35
2023/01/23 02:40:11;;;;;;;8.57;5.53;;;;;;;14.07;50.11;103715.25;5126541;27;20053;-35
2023/01/23 02:42:41;;;;;;;9.75;5.50;;;;;;;14.07;49.94;103719.72;5124340;27;21156;-35
2023/01/23 02:45:08;;;;;;;8.07;5.30;;;;;;;14.07;50.20;103723.25;5127062;27;20043;-35
2023/01/23 02:47:35;;;;;;;8.63;4.93;;;;;;;14.08;50.66;103726.78;5129661;27;20045;-35
2023/01/23 02:50:02;;;;;;;8.82;5.03;;;;;;;14.08;50.53;103727.66;5130099;27;20054;-36
2023/01/23 02:52:30;;;;;;;9.55;5.75;;;;;;;14.08;50.34;103732.13;5129224;27;20062;-35
2023/01/23 02:54:57;;;;;;;9.95;5.13;;;;;;;14.10;50.17;103724.03;5128528;27;20055;-35
2023/01/23 02:57:23;;;;;;;7.10;4.68;;;;;;;14.10;50.53;103719.59;5130199;27;20046;-35
2023/01/23 03:00:32;;;;;;;8.23;5.45;;;;;;;14.10;50.54;103718.72;5128278;28;20058;-35
2023/01/23 03:02:39;;;;;;;9.40;4.85;;;;;;;14.10;50.08;103719.59;5123671;28;20051;-35
2023/01/23 03:05:06;;;;;;;8.88;5.50;;;;;;;14.10;50.67;103730.25;5119780;28;20053;-35
2023/01/23 03:07:34;;;;;;;10.00;5.05;;;;;;;14.10;50.30;103732.91;5117319;28;20043;-35
2023/01/23 03:10:03;;;;;;;8.43;4.80;;;;;;;14.11;50.71;103736.44;5118372;28;20061;-35
2023/01/23 03:12:29;;;;;;;7.00;4.82;;;;;;;14.11;50.15;103736.44;5122896;27;20047;-35
2023/01/23 03:14:57;;;;;;;7.18;4.70;;;;;;;14.10;50.33;103732.91;5126476;28;20054;-36
2023/01/23 03:17:24;;;;;;;8.85;5.47;;;;;;;14.11;50.53;103741.78;5122189;27;20046;-35
2023/01/23 03:19:51;;;;;;;7.97;4.80;;;;;;;14.10;50.69;103746.25;5123347;28;20062;-37
2023/01/23 03:22:17;;;;;;;6.80;4.47;;;;;;;14.11;50.34;103749.78;5123228;28;20043;-35
2023/01/23 03:24:44;;;;;;;7.40;4.78;;;;;;;14.08;50.41;103738.31;5119545;27;20449;-35
2023/01/23 03:27:11;;;;;;;6.57;3.97;;;;;;;14.07;49.99;103747.25;5122748;28;20039;-38
2023/01/23 03:32:24;;;;;;;8.70;4.32;;;;;;;14.08;50.10;103751.66;5121454;27;20461;-36
2023/01/23 03:34:51;;;;;;;7.47;4.68;;;;;;;14.06;50.39;103745.50;5126458;27;20043;-39
2023/01/23 03:37:18;;;;;;;7.93;4.63;;;;;;;14.06;50.14;103741.97;5124183;27;20039;-35
2023/01/23 03:42:33;;;;;;;6.53;4.28;;;;;;;14.05;50.51;103746.44;5127486;27;20442;-36
2023/01/23 03:45:00;;;;;;;7.82;4.65;;;;;;;14.04;50.41;103739.34;5121253;27;20050;-35
2023/01/23 03:47:26;;;;;;;6.97;4.60;;;;;;;14.05;50.87;103749.09;5124180;27;20051;-34
2023/01/23 03:49:53;;;;;;;7.25;4.57;;;;;;;14.04;50.68;103738.50;5123517;27;20047;-35
2023/01/23 03:52:19;;;;;;;7.07;3.83;;;;;;;14.04;50.35;103746.50;5123697;27;20115;-36
2023/01/23 03:54:46;;;;;;;8.13;4.75;;;;;;;14.05;50.91;103748.22;5123330;27;20426;-35
2023/01/23 03:57:12;;;;;;;7.22;4.07;;;;;;;14.06;50.54;103752.63;5124648;27;20043;-35
2023/01/23 03:59:39;;;;;;;6.20;4.10;;;;;;;14.05;50.27;103748.22;5124514;27;20096;-36
2023/01/23 04:02:06;;;;;;;8.43;4.25;;;;;;;14.06;50.70;103757.97;5125374;27;20066;-36
2023/01/23 04:04:33;;;;;;;7.65;4.72;;;;;;;14.06;50.37;103748.16;5125906;27;20708;-35
2023/01/23 04:07:00;;;;;;;6.88;4.35;;;;;;;14.07;50.86;103751.72;5128001;27;20053;-37
2023/01/23 04:09:27;;;;;;;7.63;4.65;;;;;;;14.07;51.05;103760.59;5126475;27;20087;-35
2023/01/23 04:11:54;;;;;;;8.43;4.38;;;;;;;14.08;50.16;103759.66;5123671;27;20055;-36
2023/01/23 04:14:22;;;;;;;6.57;4.47;;;;;;;14.08;50.27;103759.66;5121580;27;20058;-37
2023/01/23 04:16:49;;;;;;;8.02;4.40;;;;;;;14.10;50.24;103759.59;5128233;27;20043;-35
2023/01/23 04:19:19;;;;;;;6.80;4.05;;;;;;;14.09;50.39;103755.19;5124332;27;20366;-36
2023/01/23 04:21:47;;;;;;;6.28;3.83;;;;;;;14.09;51.09;103752.53;5127211;27;20122;-37
2023/01/23 04:24:16;;;;;;;6.03;4.03;;;;;;;14.11;50.46;103755.13;5123129;27;20170;-35
2023/01/23 04:26:42;;;;;;;4.97;3.40;;;;;;;14.10;50.67;103756.06;5124039;27;20298;-35
2023/01/23 04:29:09;;;;;;;5.82;3.92;;;;;;;14.10;50.55;103754.25;5124742;27;20054;-37
2023/01/23 04:31:36;;;;;;;7.72;4.03;;;;;;;14.10;50.27;103748.06;5125859;27;21474;-36
2023/01/23 04:34:02;;;;;;;6.88;3.97;;;;;;;14.10;50.27;103753.38;5124459;27;20047;-34
2023/01/23 04:36:29;;;;;;;6.72;3.45;;;;;;;14.10;50.47;103753.38;5124337;27;20560;-35
2023/01/23 04:38:56;;;;;;;5.85;3.70;;;;;;;14.08;50.40;103753.44;5121669;27;20063;-38
2023/01/23 04:41:25;;;;;;;6.38;3.55;;;;;;;14.07;50.80;103749.91;5123040;27;20505;-35
2023/01/23 04:43:52;;;;;;;5.07;3.75;;;;;;;14.08;50.61;103753.44;5123294;27;20054;-35
2023/01/23 04:46:18;;;;;;;6.00;3.63;;;;;;;14.07;51.07;103746.38;5123575;27;20039;-35
2023/01/23 04:48:45;;;;;;;6.78;4.07;;;;;;;14.06;50.85;103750.81;5126168;27;20130;-34
2023/01/23 04:51:14;;;;;;;6.57;3.78;;;;;;;14.06;50.51;103756.16;5123738;27;20047;-35
2023/01/23 04:53:41;;;;;;;5.97;3.50;;;;;;;14.06;50.29;103753.50;5122923;27;20051;-35
2023/01/23 04:56:07;;;;;;;6.85;3.83;;;;;;;14.06;50.44;103752.63;5129142;27;20051;-35
2023/01/23 04:58:34;;;;;;;6.20;3.75;;;;;;;14.06;51.12;103760.63;5132021;27;20051;-35
2023/01/23 05:01:05;;;;;;;6.88;3.95;;;;;;;14.05;50.91;103764.22;5125817;27;20051;-35
2023/01/23 05:03:33;;;;;;;4.50;3.08;;;;;;;14.05;51.00;103764.22;5128676;27;20043;-35
2023/01/23 05:06:00;;;;;;;5.38;3.45;;;;;;;14.05;50.76;103777.56;5124420;27;20100;-35
2023/01/23 05:08:26;;;;;;;5.15;2.97;;;;;;;14.04;50.90;103775.81;5122819;27;20147;-35
2023/01/23 05:10:53;;;;;;;5.13;3.53;;;;;;;14.04;50.77;103778.50;5124766;27;20566;-35
2023/01/23 05:13:20;;;;;;;4.93;3.40;;;;;;;14.03;50.98;103780.28;5125854;27;20439;-34
2023/01/23 05:15:46;;;;;;;5.20;3.40;;;;;;;14.05;50.54;103780.22;5122317;27;20047;-35
2023/01/23 05:18:13;;;;;;;6.30;3.60;;;;;;;14.05;50.49;103772.22;5123959;27;20126;-34
2023/01/23 05:20:39;;;;;;;4.05;2.90;;;;;;;14.05;50.63;103774.91;5123307;27;20346;-37
2023/01/23 05:23:06;;;;;;;5.38;3.00;;;;;;;14.05;50.48;103773.09;5125216;27;20437;-36
2023/01/23 05:25:32;;;;;;;7.47;3.45;;;;;;;14.05;50.72;103774.91;5123327;27;20051;-34
2023/01/23 05:27:59;;;;;;;5.43;3.17;;;;;;;14.06;50.90;103779.28;5119977;27;20044;-34
2023/01/23 05:30:25;;;;;;;5.55;3.28;;;;;;;14.07;50.47;103778.38;5121819;27;20332;-35
2023/01/23 05:32:52;;;;;;;5.15;3.30;;;;;;;14.07;50.71;103773.06;5119935;27;20054;-35
2023/01/23 05:35:19;;;;;;;5.47;3.33;;;;;;;14.08;50.46;103774.78;5123477;27;20050;-35
2023/01/23 05:37:50;;;;;;;5.35;3.47;;;;;;;14.08;50.73;103773.00;5124290;27;20440;-35
2023/01/23 05:40:17;;;;;;;4.75;3.35;;;;;;;14.09;51.09;103771.19;5119126;27;20350;-35
2023/01/23 05:42:45;;;;;;;5.93;3.83;;;;;;;14.10;50.95;103772.91;5123229;27;20046;-35
2023/01/23 05:45:11;;;;;;;5.10;3.13;;;;;;;14.09;50.56;103773.84;5124404;27;20051;-35
2023/01/23 05:47:38;;;;;;;5.20;2.80;;;;;;;14.10;50.78;103770.25;5124247;27;20054;-36
2023/01/23 05:50:06;;;;;;;4.65;3.03;;;;;;;14.10;50.71;103764.06;5120805;27;20051;-36
2023/01/23 05:52:34;;;;;;;6.05;3.55;;;;;;;14.09;50.67;103771.19;5123698;27;20050;-35
2023/01/23 05:55:00;;;;;;;5.38;3.33;;;;;;;14.10;50.84;103774.72;5116491;27;20051;-34
2023/01/23 05:57:27;;;;;;;4.80;3.20;;;;;;;14.10;50.99;103778.25;5126142;27;20066;-36
2023/01/23 05:59:53;;;;;;;5.18;2.63;;;;;;;14.10;50.32;103786.25;5124011;27;20055;-34
2023/01/23 06:02:20;;;;;;;5.22;3.25;;;;;;;14.10;50.58;103783.59;5121328;27;20051;-35
2023/01/23 06:04:48;;;;;;;4.53;3.00;;;;;;;14.10;50.88;103788.06;5118890;27;20089;-34
2023/01/23 06:07:16;;;;;;;6.50;2.70;;;;;;;14.10;50.34;103799.59;5125343;27;20047;-35
2023/01/23 06:09:43;;;;;;;4.53;2.80;;;;;;;14.10;50.24;103788.06;5119940;27;20055;-35
2023/01/23 06:12:10;;;;;;;4.20;2.70;;;;;;;14.10;50.43;103804.06;5121929;27;20049;-35
2023/01/23 06:14:38;;;;;;;5.30;2.75;;;;;;;14.11;51.01;103800.47;5125493;27;20444;-35
2023/01/23 06:17:05;;;;;;;4.63;2.58;;;;;;;14.09;50.81;103795.19;5120508;27;20055;-36
2023/01/23 06:19:32;;;;;;;4.38;2.60;;;;;;;14.10;50.47;103804.06;5124836;27;20051;-34
2023/01/23 06:21:59;;;;;;;5.50;2.70;;;;;;;14.10;50.37;103801.41;5122695;27;20058;-35
2023/01/23 06:24:25;;;;;;;4.45;2.67;;;;;;;14.09;50.51;103800.53;5118541;27;20429;-35
2023/01/23 06:26:52;;;;;;;4.82;2.72;;;;;;;14.08;50.48;103807.66;5122346;27;20055;-35
2023/01/23 06:29:18;;;;;;;5.03;2.90;;;;;;;14.08;51.06;103801.47;5122064;27;21644;-35
2023/01/23 06:31:46;;;;;;;4.95;2.70;;;;;;;14.07;50.41;103803.25;5125048;27;20061;-37
2023/01/23 06:34:14;;;;;;;4.50;2.47;;;;;;;14.08;51.02;103812.13;5122978;27;20086;-35
2023/01/23 06:36:41;;;;;;;3.97;2.65;;;;;;;14.08;50.82;103817.47;5123875;27;20338;-35
2023/01/23 06:39:12;;;;;;;4.50;2.60;;;;;;;14.06;50.45;103820.16;5123669;27;20134;-34
2023/01/23 06:41:38;;;;;;;4.63;2.45;;;;;;;14.07;50.78;103819.25;5121560;27;20043;-34
2023/01/23 06:44:06;;;;;;;3.58;2.35;;;;;;;14.06;50.87;103812.16;5123406;27;20058;-35
2023/01/23 06:46:33;;;;;;;3.97;2.78;;;;;;;14.08;50.96;103809.47;5121914;27;20397;-36
2023/01/23 06:48:59;;;;;;;3.33;2.28;;;;;;;14.08;51.01;103809.47;5123529;27;20051;-35
2023/01/23 06:51:26;;;;;;;4.03;2.40;;;;;;;14.08;50.89;103807.66;5126336;27;20079;-36
2023/01/23 06:53:53;;;;;;;5.45;2.90;;;;;;;14.09;50.76;103813.88;5120541;27;20040;-36
2023/01/23 06:56:19;;;;;;;3.85;2.72;;;;;;;14.10;50.46;103810.25;5123190;27;20450;-34
2023/01/23 06:58:47;;;;;;;3.42;2.40;;;;;;;14.10;50.93;103812.94;5113527;27;21460;-36
2023/01/23 07:01:17;;;;;;;4.82;2.58;;;;;;;14.11;51.10;103801.34;5116599;28;20442;-34
2023/01/23 07:03:44;;;;;;;3.65;2.58;;;;;;;14.11;50.84;103806.69;5118864;28;20047;-36
2023/01/23 07:06:13;;;;;;;5.78;2.72;;;;;;;14.10;50.93;103804.94;5119697;27;20051;-36
2023/01/23 07:08:40;;;;;;;5.43;2.80;;;;;;;14.11;50.80;103796.03;5117648;27;20050;-34
2023/01/23 07:11:07;;;;;;;4.13;2.60;;;;;;;14.11;50.61;103801.34;5121032;27;20051;-37
2023/01/23 07:13:34;;;;;;;3.53;2.53;;;;;;;14.10;50.40;103799.59;5122584;27;20062;-37
2023/01/23 07:16:01;;;;;;;3.53;2.40;;;;;;;14.11;51.02;103811.13;5121225;27;20047;-35
2023/01/23 07:18:29;;;;;;;4.68;2.58;;;;;;;14.10;50.34;103809.41;5120109;27;20047;-36
2023/01/23 07:20:56;;;;;;;3.30;2.10;;;;;;;14.09;51.09;103816.53;5119875;27;20079;-35
2023/01/23 07:23:22;;;;;;;4.20;2.35;;;;;;;14.09;50.83;103821.88;5118791;27;20426;-35
2023/01/23 07:25:49;;;;;;;3.70;2.60;;;;;;;14.08;51.26;103822.78;5121284;27;20430;-35
2023/01/23 07:28:15;;;;;;;3.78;2.10;;;;;;;14.07;51.01;103829.94;5124835;27;20039;-35
2023/01/23 07:30:42;;;;;;;3.40;2.42;;;;;;;14.08;50.85;103836.13;5124965;27;20051;-38
2023/01/23 07:33:10;;;;;;;3.42;2.35;;;;;;;14.08;50.73;103836.13;5128582;27;20047;-34
2023/01/23 07:35:38;;;;;;;3.67;2.20;;;;;;;14.07;50.90;103837.06;5130250;27;20422;-36
2023/01/23 07:38:04;;;;;;;2.95;2.03;;;;;;;14.07;50.99;103834.41;5130919;27;20043;-34
2023/01/23 07:40:31;;;;;;;3.60;2.22;;;;;;;14.06;50.78;103844.16;5128286;27;20134;-35
2023/01/23 07:42:57;;;;;;;3.55;2.45;;;;;;;14.07;50.68;103851.25;5128205;27;20158;-35
2023/01/23 07:45:24;;;;;;;3.55;2.20;;;;;;;14.06;51.14;103845.97;5128024;27;20137;-35
2023/01/23 07:47:51;;;;;;;4.47;2.65;;;;;;;14.06;50.61;103856.63;5132159;27;20438;-34
2023/01/23 07:50:17;;;;;;;5.30;2.13;;;;;;;14.06;50.93;103856.63;5130239;27;20051;-36
2023/01/23 07:52:44;;;;;;;3.33;2.38;;;;;;;14.06;50.73;103867.31;5129131;27;20048;-36
2023/01/23 07:55:11;;;;;;;2.53;2.08;;;;;;;14.05;50.86;103866.44;5128522;27;20050;-36
2023/01/23 07:57:37;;;;;;;3.10;2.38;;;;;;;14.05;50.56;103868.22;5129041;27;20179;-35
2023/01/23 08:00:05;;;;;;;3.53;2.40;;;;;;;14.04;51.04;103867.38;5128906;27;20071;-35
2023/01/23 08:02:31;;;;;;;3.95;2.35;;;;;;;14.03;50.57;103862.97;5126472;27;20056;-36
2023/01/23 08:04:58;;;;;;;2.80;2.10;;;;;;;14.04;50.97;103861.16;5123535;27;20054;-36
2023/01/23 08:07:24;;;;;;;2.95;1.90;;;;;;;14.03;50.86;103862.97;5123547;27;20043;-35
2023/01/23 08:09:51;;;;;;;3.05;2.10;;;;;;;14.04;50.96;103866.50;5124126;27;20334;-35
2023/01/23 08:12:17;;;;;;;4.63;2.38;;;;;;;14.02;50.88;103868.34;5128708;27;20054;-35
2023/01/23 08:14:46;;;;;;;2.90;2.13;;;;;;;14.03;50.97;103870.97;5124652;27;20053;-35
2023/01/23 08:17:13;;;;;;;2.75;1.90;;;;;;;14.04;50.90;103867.38;5128622;27;20061;-35
2023/01/23 08:19:39;;;;;;;3.38;2.33;;;;;;;14.03;51.07;103876.31;5128766;27;20437;-35
2023/01/23 08:22:06;;;;;;;2.72;2.00;;;;;;;14.02;51.22;103874.53;5128395;27;20075;-35
2023/01/23 08:24:32;;;;;;;3.40;2.17;;;;;;;14.03;50.91;103881.63;5128569;27;20047;-35
2023/01/23 08:26:59;;;;;;;3.88;2.45;;;;;;;14.02;50.92;103887.88;5129083;27;20073;-36
2023/01/23 08:29:25;;;;;;;3.53;2.35;;;;;;;14.04;51.41;103885.16;5125371;27;20493;-35
2023/01/23 08:31:53;;;;;;;3.90;2.30;;;;;;;14.02;50.70;103871.88;5124704;27;20067;-36
2023/01/23 08:34:20;;;;;;;3.20;2.13;;;;;;;14.04;50.94;103877.16;5129645;27;20337;-36
2023/01/23 08:36:47;;;;;;;4.13;2.70;;;;;;;14.04;51.40;103874.50;5126502;27;20043;-34
2023/01/23 08:39:15;;;;;;;3.92;2.65;;;;;;;14.05;51.04;103877.09;5124932;27;20057;-35
2023/01/23 08:41:42;;;;;;;3.08;2.17;;;;;;;14.05;50.63;103882.44;5124950;27;20074;-35
2023/01/23 08:44:08;;;;;;;3.83;2.38;;;;;;;14.05;50.99;103901.09;5126848;27;20062;-36
2023/01/23 08:46:35;;;;;;;3.72;2.45;;;;;;;14.06;50.61;103905.50;5123942;27;20047;-36
2023/01/23 08:49:03;;;;;;;3.50;2.47;;;;;;;14.06;50.64;103899.31;5123274;27;20044;-36
2023/01/23 08:51:30;;;;;;;3.28;2.30;;;;;;;14.06;50.87;103899.31;5120661;27;20124;-36
2023/01/23 08:53:57;;;;;;;4.80;2.58;;;;;;;14.06;51.05;103905.50;5126512;27;20043;-35
2023/01/23 08:56:24;;;;;;;3.83;2.40;;;;;;;14.06;51.29;103921.50;5128363;27;20047;-36
2023/01/23 08:58:51;;;;;;;4.75;2.60;;;;;;;14.07;50.58;103922.41;5121546;27;20048;-35
2023/01/23 09:01:23;;;;;;;3.75;2.80;;;;;;;14.06;51.15;103918.84;5123691;27;21479;-36
2023/01/23 09:03:50;;;;;;;4.82;3.40;;;;;;;14.07;51.00;103914.41;5124943;27;20453;-36
2023/01/23 09:06:18;;;;;;;5.80;3.15;;;;;;;14.08;50.40;103913.47;5127288;27;20044;-34
2023/01/23 09:08:46;;;;;;;5.78;2.90;;;;;;;14.09;50.97;103917.88;5127828;27;20050;-37
2023/01/23 09:11:14;;;;;;;5.47;3.50;;;;;;;14.10;51.01;103921.41;5126282;27;20057;-37
2023/01/23 09:13:41;;;;;;;3.85;2.63;;;;;;;14.11;51.04;103918.72;5128102;27;20446;-35
2023/01/23 09:16:08;;;;;;;4.47;3.08;;;;;;;14.12;50.83;103923.13;5130745;27;20072;-36
2023/01/23 09:18:35;;;;;;;5.72;3.38;;;;;;;14.13;50.88;103911.50;5123311;27;20118;-34
2023/01/23 09:21:07;;;;;;;4.35;2.72;;;;;;;14.13;51.25;103907.97;5127111;27;20442;-38
2023/01/23 09:23:34;;;;;;;5.72;3.10;;;;;;;14.15;51.17;103915.00;5125146;27;20051;-37
2023/01/23 09:26:04;;;;;;;4.60;2.90;;;;;;;14.17;51.25;103925.63;5123419;27;20043;-35
2023/01/23 09:28:31;;;;;;;5.47;3.08;;;;;;;14.19;50.69;103919.31;5129829;27;20418;-35
2023/01/23 09:31:02;;;;;;;5.63;3.28;;;;;;;14.19;51.32;103923.75;5126701;27;20067;-35
2023/01/23 09:33:29;;;;;;;7.47;3.55;;;;;;;14.21;50.99;103928.13;5126623;27;20422;-34
2023/01/23 09:35:56;;;;;;;4.18;2.90;;;;;;;14.21;51.04;103920.13;5127532;27;20051;-36
2023/01/23 09:38:23;;;;;;;4.57;3.00;;;;;;;14.22;50.56;103929.84;5127500;27;20114;-35
2023/01/23 09:40:56;;;;;;;6.75;2.95;;;;;;;14.23;50.54;103936.06;5127519;27;20047;-35
2023/01/23 09:43:28;;;;;;;6.32;3.40;;;;;;;14.24;50.84;103930.69;5127724;27;20042;-35
2023/01/23 09:46:43;;;;;;;5.05;3.47;;;;;;;14.25;51.01;103924.44;5124503;27;20047;-35
2023/01/23 09:49:16;;;;;;;6.10;4.00;;;;;;;14.28;50.93;103931.47;5118141;27;20049;-34
2023/01/23 09:51:53;;;;;;;6.00;3.60;;;;;;;14.29;50.57;103935.88;5125690;27;20066;-36
2023/01/23 09:54:39;;;;;;;5.88;3.45;;;;;;;14.30;50.92;103933.13;5122325;27;20476;-39
2023/01/23 09:57:18;;;;;;;4.85;3.25;;;;;;;14.33;50.47;103938.38;5123409;27;20126;-35
2023/01/23 09:59:54;;;;;;;4.95;3.38;;;;;;;14.35;50.65;103945.44;5122736;27;20062;-36
2023/01/23 10:02:26;;;;;;;6.22;2.97;;;;;;;14.37;50.21;103943.59;5125987;27;20035;-36
2023/01/23 10:04:55;;;;;;;9.73;4.15;;;;;;;14.36;50.30;103933.88;5124959;27;20114;-35
2023/01/23 10:07:37;;;;;;;5.22;3.13;;;;;;;14.36;50.27;103931.19;5113882;27;20096;-35
2023/01/23 10:10:37;;;;;;;5.75;3.40;;;;;;;14.37;50.63;103938.28;5122246;27;20039;-35
2023/01/23 10:13:35;;;;;;;7.97;3.72;;;;;;;14.38;51.05;103937.34;5120452;27;20051;-35
2023/01/23 10:16:11;;;;;;;6.18;3.40;;;;;;;14.38;51.12;103934.66;5122041;27;20051;-35
2023/01/23 10:18:47;;;;;;;7.78;4.18;;;;;;;14.39;50.59;103929.28;5121610;27;20502;-35
2023/01/23 10:21:27;;;;;;;9.00;4.57;;;;;;;14.39;50.41;103931.97;5120195;27;20047;-35
2023/01/23 10:24:03;;;;;;;7.90;4.20;;;;;;;14.40;50.75;103924.81;5120629;27;20231;-35
2023/01/23 10:26:43;;;;;;;8.35;4.65;;;;;;;14.41;50.64;103918.56;5120631;27;20044;-35
2023/01/23 10:29:55;;;;;;;7.25;3.90;;;;;;;14.42;50.86;103914.94;5122581;27;20043;-37
2023/01/23 10:32:27;;;;;;;6.28;4.03;;;;;;;14.45;50.62;103909.50;5066274;28;20052;-35
2023/01/23 10:35:15;;;;;;;5.85;3.90;;;;;;;14.45;50.89;103920.19;5121666;27;20048;-36
2023/01/23 10:37:49;;;;;;;6.18;3.95;;;;;;;14.47;51.07;103918.31;5125530;27;20051;-35
2023/01/23 10:43:17;;;;;;;6.15;3.58;;;;;;;14.50;51.10;103915.59;5119073;27;20054;-37
2023/01/23 10:45:45;;;;;;;6.13;3.92;;;;;;;14.52;50.92;103913.75;5126904;27;20338;-35
2023/01/23 10:48:39;;;;;;;7.90;4.40;;;;;;;14.54;50.96;103910.06;5120032;27;20085;-38
2023/01/23 10:51:36;;;;;;;7.85;4.53;;;;;;;14.56;51.12;103912.72;5119865;27;20053;-34
2023/01/23 10:54:18;;;;;;;7.13;4.40;;;;;;;14.61;51.29;103918.75;5117967;27;20051;-35
2023/01/23 10:57:02;;;;;;;;;;;;;;;14.65;50.89;103914.16;5123039;27;20051;-37
2023/01/23 10:59:47;;;;;;;7.68;4.53;;;;;;;14.72;50.71;103926.38;5123525;27;20219;-37
2023/01/23 11:02:14;;;;;;;8.82;5.18;;;;;;;14.75;50.11;103927.13;5120399;27;20053;-35
2023/01/23 11:04:43;;;;;;;13.73;6.28;;;;;;;14.80;51.02;103933.16;5122946;27;20100;-36
2023/01/23 11:07:21;;;;;;;9.88;6.05;;;;;;;14.85;50.98;103932.13;5117905;27;20146;-35
2023/01/23 11:10:03;;;;;;;12.13;6.45;;;;;;;14.89;50.06;103928.41;5120386;27;20047;-36
2023/01/23 11:12:32;;;;;;;12.52;6.18;;;;;;;14.93;50.69;103924.69;5120203;27;20042;-36
2023/01/23 11:15:23;;;;;;;11.93;6.60;;;;;;;14.95;49.89;103929.03;5121824;28;20062;-35
2023/01/23 11:17:52;;;;;;;12.07;6.72;;;;;;;15.00;50.05;103924.41;5124224;28;20055;-35
2023/01/23 11:20:32;;;;;;;11.48;6.85;;;;;;;15.04;50.07;103922.50;5124903;28;20062;-35
2023/01/23 11:23:02;;;;;;;15.05;7.95;;;;;;;15.08;50.02;103921.44;5121813;28;20112;-35
2023/01/23 11:25:32;;;;;;;16.23;8.02;;;;;;;15.10;49.75;103911.56;5122538;28;20138;-35
2023/01/23 11:28:34;;;;;;;16.20;8.68;;;;;;;15.15;50.42;103914.03;5124408;28;20043;-36
2023/01/23 11:31:16;;;;;;;15.98;9.05;;;;;;;15.18;50.17;103912.13;5124609;28;20054;-36
2023/01/23 11:34:01;;;;;;;15.23;9.07;;;;;;;15.22;49.67;103916.41;5125522;28;20350;-35
2023/01/23 11:36:32;;;;;;;16.50;9.38;;;;;;;15.26;49.86;103917.16;5124588;28;20105;-37
2023/01/23 11:39:12;;;;;;;16.48;9.30;;;;;;;15.28;49.69;103909.97;5124447;28;20150;-36
2023/01/23 11:41:38;;;;;;;18.20;9.55;;;;;;;15.33;50.39;103907.13;5126311;28;20119;-36
2023/01/23 11:44:15;;;;;;;17.08;9.07;;;;;;;15.36;49.94;103912.34;5121832;28;20096;-35
2023/01/23 11:47:07;;;;;;;18.92;9.43;;;;;;;15.40;50.56;103908.63;5125991;28;20123;-36